Observations for BIRMINGHAM AIRPORT, United Kingdom (EGBB)

EGBB 200620Z 36003KT 6000 NSC 08/06 Q1032   
EGBB 200550Z 33003KT 6000 NSC 08/05 Q1032   
EGBB 200520Z 32003KT 5000 HZ NSC 07/05 Q1032
EGBB 200450Z 32003KT 5000 HZ NSC 07/05 Q1032
EGBB 200420Z 32003KT 5000 HZ NSC 07/05 Q1032
EGBB 200350Z 31002KT CAVOK 07/05 Q1032  
EGBB 200320Z 32003KT CAVOK 08/06 Q1032  
EGBB 200250Z 32002KT CAVOK 09/06 Q1032  
EGBB 200220Z VRB02KT CAVOK 09/06 Q1032  
EGBB 200150Z 05002KT CAVOK 09/06 Q1032  
EGBB 200120Z 02003KT CAVOK 10/06 Q1032  
EGBB 200050Z 34003KT CAVOK 11/06 Q1032  
EGBB 200020Z 33004KT CAVOK 11/06 Q1032  
EGBB 192320Z 33003KT CAVOK 12/06 Q1032  
EGBB 192250Z 32002KT CAVOK 13/06 Q1032  
EGBB 192220Z VRB01KT CAVOK 13/06 Q1032  
EGBB 192150Z VRB03KT CAVOK 13/06 Q1032  
EGBB 192120Z VRB04G18KT CAVOK 15/06 Q1031   
EGBB 192050Z 09004KT CAVOK 15/06 Q1031  
EGBB 192020Z 09004KT CAVOK 16/06 Q1031  
EGBB 191950Z 09004KT CAVOK 17/06 Q1031  
EGBB 191920Z 05005KT CAVOK 18/06 Q1031  
EGBB 191850Z 05006KT CAVOK 19/06 Q1030  
EGBB 191820Z 05006KT CAVOK 20/06 Q1030  
EGBB 191750Z 07005KT CAVOK 20/06 Q1030  
EGBB 191720Z 10005KT CAVOK 21/06 Q1030  
EGBB 191650Z 06007KT CAVOK 21/06 Q1029  
EGBB 191620Z 06006KT 020V100 CAVOK 22/07 Q1029  
EGBB 191550Z 09007KT 010V130 CAVOK 22/07 Q1029  
EGBB 191520Z 10006KT 060V150 CAVOK 22/07 Q1029  
EGBB 191450Z 08007KT 010V130 CAVOK 21/07 Q1029  
EGBB 191420Z 12007KT 070V200 CAVOK 21/07 Q1030  
EGBB 191350Z 10006KT 070V160 CAVOK 21/08 Q1030  
EGBB 191320Z 08007KT 030V130 CAVOK 20/08 Q1030  
EGBB 191250Z 11008KT 060V140 CAVOK 20/08 Q1030  
EGBB 191220Z 08007KT 050V120 CAVOK 19/08 Q1030  
EGBB 191150Z 07009KT 030V100 CAVOK 19/07 Q1030  
EGBB 191120Z 05007KT 020V090 CAVOK 18/09 Q1030  
EGBB 191050Z 04006KT 360V070 CAVOK 17/08 Q1030  
EGBB 191020Z 03006KT 350V080 CAVOK 16/08 Q1030  
EGBB 190950Z 02007KT 350V050 CAVOK 14/08 Q1030  
EGBB 190920Z 03006KT 350V060 9000 NSC 13/08 Q1030   
EGBB 190850Z 02006KT 8000 NSC 12/08 Q1030   
EGBB 190820Z 03006KT 350V060 7000 NSC 11/08 Q1030   
EGBB 190750Z 01006KT 5000 HZ NSC 10/07 Q1030
EGBB 190720Z 35006KT 6000 NSC 09/07 Q1030   
EGBB 190650Z 36004KT 6000 NSC 08/07 Q1029   
EGBB 190550Z 33004KT 4800 HZ NSC 07/06 Q1029